Time;durP1;ratioP1;P1;durP2;ratioP2;P2;SDS_P1;SDS_P2;PMS_P1;PMS_P2;Temp;Humidity;BMP_temperature;BMP_pressure;BME280_temperature;BME280_humidity;BME280_pressure;Samples;Min_cycle;Max_cycle;Signal;HPM_P1;HPM_P2
2022/05/12 04:29:54;;;;;;;6.75;1.70;;;20.60;99.90;;;;;;5626818;23;20225;-72
2022/05/12 04:32:21;;;;;;;4.97;1.35;;;20.60;99.90;;;;;;5015259;28;20292;-76
2022/05/12 04:37:33;;;;;;;5.95;1.83;;;20.50;99.90;;;;;;5014687;28;20180;-75
2022/05/12 04:40:06;;;;;;;5.32;1.35;;;20.50;99.90;;;;;;5015145;28;20225;-75
2022/05/12 04:42:33;;;;;;;8.40;2.20;;;20.50;99.90;;;;;;5014579;28;20257;-75
2022/05/12 04:45:01;;;;;;;1.58;1.50;;;20.50;99.90;;;;;;5014548;28;20201;-74
2022/05/12 04:47:28;;;;;;;7.57;1.85;;;20.50;99.90;;;;;;5014420;28;20292;-71
2022/05/12 04:49:56;;;;;;;15.55;2.25;;;20.40;99.90;;;;;;5017839;28;20787;-75
2022/05/12 04:52:23;;;;;;;10.60;1.63;;;20.50;99.90;;;;;;5017679;28;20193;-73
2022/05/12 04:54:50;;;;;;;8.18;1.40;;;20.50;99.90;;;;;;5016269;28;20642;-74
2022/05/12 04:57:17;;;;;;;14.73;1.25;;;20.60;99.90;;;;;;5040550;23;20651;-80
2022/05/12 04:59:44;;;;;;;7.68;0.80;;;20.50;99.90;;;;;;5016532;28;20208;-78
2022/05/12 05:02:13;;;;;;;5.47;0.60;;;20.50;99.90;;;;;;5014773;28;20246;-77
2022/05/12 05:04:39;;;;;;;0.68;0.50;;;20.50;99.90;;;;;;5014369;28;20293;-74
2022/05/12 05:07:08;;;;;;;3.40;0.50;;;20.50;99.90;;;;;;5014107;28;20228;-73
2022/05/12 05:09:35;;;;;;;0.98;0.30;;;20.50;99.90;;;;;;5013901;28;20545;-73
2022/05/12 05:12:02;;;;;;;0.30;0.30;;;20.50;99.90;;;;;;5014439;28;20227;-78
2022/05/12 05:14:29;;;;;;;0.28;0.28;;;20.50;99.90;;;;;;5014190;28;20565;-73
2022/05/12 05:16:56;;;;;;;2.92;0.45;;;20.40;99.90;;;;;;5014067;28;20221;-74
2022/05/12 05:19:24;;;;;;;1.17;0.50;;;20.50;99.90;;;;;;5013993;28;20208;-74
2022/05/12 05:21:51;;;;;;;1.85;0.32;;;20.50;99.90;;;;;;5013824;28;20296;-74
2022/05/12 05:24:18;;;;;;;2.67;0.40;;;20.50;99.90;;;;;;5013874;28;20205;-75
2022/05/12 05:26:45;;;;;;;0.20;0.20;;;20.50;99.90;;;;;;5013421;28;20625;-75
2022/05/12 05:29:12;;;;;;;1.13;0.30;;;20.50;99.90;;;;;;5013744;28;20206;-74
2022/05/12 05:31:39;;;;;;;0.95;0.30;;;20.50;99.90;;;;;;5013939;28;20201;-74
2022/05/12 05:34:09;;;;;;;0.32;0.32;;;20.50;99.90;;;;;;5013661;28;20200;-74
2022/05/12 05:36:39;;;;;;;2.00;0.40;;;20.50;99.90;;;;;;5013496;28;20275;-74
2022/05/12 05:39:07;;;;;;;0.35;0.35;;;20.50;99.90;;;;;;5013869;28;20556;-74
2022/05/12 05:41:35;;;;;;;1.92;0.40;;;20.50;99.90;;;;;;5013567;28;20212;-74
2022/05/12 05:44:02;;;;;;;0.63;0.40;;;20.60;99.90;;;;;;5013726;28;20632;-74
2022/05/12 05:46:29;;;;;;;0.32;0.32;;;20.60;99.90;;;;;;5013403;28;20227;-75
2022/05/12 05:48:56;;;;;;;0.50;0.50;;;20.60;99.90;;;;;;5013507;28;20205;-74
2022/05/12 10:09:54;;;;;;;9.10;1.10;;;20.90;99.90;;;;;;4961313;29;20226;-78
2022/05/12 10:12:23;;;;;;;6.90;0.90;;;20.90;99.90;;;;;;4963445;28;20705;-79
2022/05/12 10:14:57;;;;;;;6.72;1.08;;;20.90;99.90;;;;;;4963673;28;20208;-77
2022/05/12 10:17:30;;;;;;;5.43;0.70;;;20.90;99.90;;;;;;4960285;28;20218;-78
2022/05/12 10:20:01;;;;;;;4.63;0.75;;;21.00;99.90;;;;;;4959627;28;20546;-79
2022/05/12 10:22:34;;;;;;;4.35;0.80;;;21.00;99.90;;;;;;4959866;28;20208;-79
2022/05/12 10:25:13;;;;;;;11.73;0.95;;;21.10;99.90;;;;;;4959911;28;20232;-76
2022/05/12 10:27:49;;;;;;;4.13;0.88;;;21.10;99.90;;;;;;4964496;28;20219;-78
2022/05/12 10:30:22;;;;;;;5.20;1.15;;;21.10;99.90;;;;;;4959939;28;20197;-78
2022/05/12 10:33:05;;;;;;;4.50;1.15;;;21.10;99.90;;;;;;4970988;28;20252;-76
2022/05/12 10:35:38;;;;;;;10.13;1.52;;;21.10;99.90;;;;;;4965293;28;20282;-78
2022/05/12 10:38:08;;;;;;;5.20;1.23;;;21.10;99.90;;;;;;4963366;28;20729;-80
2022/05/12 10:40:40;;;;;;;13.27;1.55;;;21.10;99.90;;;;;;4966534;28;20247;-79
2022/05/12 10:43:45;;;;;;;14.27;1.30;;;21.10;99.90;;;;;;4963067;28;20723;-79
2022/05/12 10:46:19;;;;;;;7.18;1.30;;;21.10;99.90;;;;;;4967180;28;20188;-80
2022/05/12 10:48:50;;;;;;;4.32;1.08;;;21.00;99.90;;;;;;4970792;28;20640;-80
2022/05/12 10:51:32;;;;;;;3.88;0.88;;;21.00;99.90;;;;;;4969900;28;20198;-80
2022/05/12 10:54:10;;;;;;;3.03;1.05;;;21.00;99.90;;;;;;4966234;28;20266;-79
2022/05/12 10:56:48;;;;;;;4.22;0.93;;;21.00;99.90;;;;;;4963445;28;20719;-79
2022/05/12 10:59:44;;;;;;;6.57;1.02;;;21.00;99.90;;;;;;4963003;28;20579;-78
2022/05/12 11:02:16;;;;;;;3.33;0.80;;;21.10;99.90;;;;;;4959977;28;20294;-78
2022/05/12 11:04:46;;;;;;;4.95;1.02;;;21.10;99.90;;;;;;4960379;28;20216;-78
2022/05/12 11:07:19;;;;;;;1.55;0.85;;;21.20;99.90;;;;;;4959516;28;20251;-77
2022/05/12 11:09:50;;;;;;;3.50;0.82;;;21.20;99.90;;;;;;4959407;28;20298;-78
2022/05/12 11:12:26;;;;;;;11.20;1.15;;;21.20;99.90;;;;;;4960067;28;20214;-77
2022/05/12 11:14:56;;;;;;;6.07;1.10;;;21.20;99.90;;;;;;4961920;28;20210;-80
2022/05/12 11:17:33;;;;;;;7.90;1.23;;;21.20;99.90;;;;;;4961215;28;20234;-78
2022/05/12 11:20:07;;;;;;;13.57;1.17;;;21.20;99.90;;;;;;4961755;28;20710;-78
2022/05/12 11:22:43;;;;;;;4.35;1.10;;;21.20;99.90;;;;;;4961400;28;20710;-78
2022/05/12 11:25:14;;;;;;;7.20;1.27;;;21.20;99.90;;;;;;4960791;28;20562;-76
2022/05/12 11:27:51;;;;;;;5.00;1.42;;;21.20;99.90;;;;;;4957535;28;20699;-77
2022/05/12 11:30:33;;;;;;;6.28;1.70;;;21.20;99.90;;;;;;4957696;28;20189;-76
2022/05/12 11:33:11;;;;;;;10.68;1.17;;;21.20;99.90;;;;;;4957641;28;20194;-75
2022/05/12 11:35:43;;;;;;;6.38;1.27;;;21.20;99.90;;;;;;4957723;28;20188;-77
2022/05/12 11:38:11;;;;;;;2.25;1.15;;;21.20;99.90;;;;;;4958039;28;20219;-78
2022/05/12 11:40:54;;;;;;;5.72;0.90;;;21.20;99.90;;;;;;4959274;28;20203;-78
2022/05/12 11:46:44;;;;;;;7.50;1.30;;;21.20;99.90;;;;;;4958622;29;20236;-77
2022/05/12 11:49:27;;;;;;;5.32;1.20;;;21.20;99.90;;;;;;4957607;28;20194;-77
2022/05/12 11:52:03;;;;;;;8.40;1.00;;;21.20;99.90;;;;;;4957638;28;20192;-78
2022/05/12 11:54:34;;;;;;;5.00;1.25;;;21.20;99.90;;;;;;4957361;28;20190;-75
2022/05/12 11:57:03;;;;;;;4.13;1.08;;;21.20;99.90;;;;;;4957185;28;20231;-75
2022/05/12 11:59:48;;;;;;;4.28;1.08;;;21.20;99.90;;;;;;4956821;28;20577;-75
2022/05/12 12:02:48;;;;;;;8.38;1.20;;;21.20;99.90;;;;;;4956874;28;20279;-75
2022/05/12 12:05:47;;;;;;;7.00;1.10;;;21.20;99.90;;;;;;4957068;28;20203;-75
2022/05/12 12:08:43;;;;;;;3.83;1.10;;;21.20;99.90;;;;;;4956424;28;20227;-75
2022/05/12 12:11:25;;;;;;;4.65;1.08;;;21.20;99.90;;;;;;4956682;28;20597;-76
2022/05/12 12:13:53;;;;;;;2.13;1.05;;;21.20;99.90;;;;;;4956592;28;20363;-76
2022/05/12 12:16:24;;;;;;;5.03;1.02;;;21.20;99.90;;;;;;4956740;28;20204;-76
2022/05/12 12:19:01;;;;;;;3.58;1.20;;;21.30;99.90;;;;;;4956841;28;20271;-74
2022/05/12 12:22:13;;;;;;;3.00;1.10;;;21.30;99.90;;;;;;4956521;28;20195;-76
2022/05/12 12:24:54;;;;;;;6.05;0.90;;;21.30;99.90;;;;;;4956779;28;20695;-77
2022/05/12 12:27:46;;;;;;;1.75;0.80;;;21.30;99.90;;;;;;4956386;28;20585;-77
2022/05/12 12:30:28;;;;;;;5.47;1.52;;;21.30;99.90;;;;;;4946718;28;20239;-75
2022/05/12 12:33:20;;;;;;;6.50;0.88;;;21.30;99.90;;;;;;4956449;28;20187;-76
2022/05/12 12:35:55;;;;;;;7.05;1.15;;;21.30;99.90;;;;;;4956633;28;20352;-76
2022/05/12 12:39:05;;;;;;;7.60;1.25;;;21.30;99.90;;;;;;4956655;28;20242;-76
2022/05/12 12:41:42;;;;;;;6.82;0.88;;;21.30;99.90;;;;;;4956479;28;20191;-76
2022/05/12 12:44:17;;;;;;;2.40;1.10;;;21.30;99.90;;;;;;4956225;28;20217;-77
2022/05/12 12:46:57;;;;;;;2.70;1.38;;;21.40;99.90;;;;;;4956191;28;20226;-77
2022/05/12 12:49:28;;;;;;;3.92;0.90;;;21.40;99.90;;;;;;4956277;28;20198;-77
2022/05/12 12:51:57;;;;;;;2.83;0.90;;;21.40;99.90;;;;;;4956302;28;20242;-77
2022/05/12 12:57:15;;;;;;;0.93;0.93;;;21.50;99.90;;;;;;4956108;29;20266;-76
2022/05/12 12:59:48;;;;;;;1.13;1.02;;;21.50;99.90;;;;;;4956102;28;20278;-76
2022/05/12 13:02:27;;;;;;;3.50;1.10;;;21.50;99.90;;;;;;4956014;28;20192;-76
2022/05/12 13:04:57;;;;;;;1.63;1.00;;;21.50;99.90;;;;;;4955612;28;20746;-76
2022/05/12 13:07:32;;;;;;;2.85;1.05;;;21.50;99.90;;;;;;4958675;28;20262;-78
2022/05/12 13:10:02;;;;;;;1.08;0.93;;;21.50;99.90;;;;;;4955609;28;20214;-76
2022/05/12 13:12:30;;;;;;;3.38;0.95;;;21.50;99.90;;;;;;4955629;28;20631;-76
2022/05/12 13:15:00;;;;;;;4.68;1.15;;;21.50;99.90;;;;;;4955512;28;20559;-76
2022/05/12 13:17:29;;;;;;;2.08;1.02;;;21.50;99.90;;;;;;4955734;28;20310;-76
2022/05/12 13:19:58;;;;;;;2.83;0.90;;;21.50;99.90;;;;;;4956374;28;20227;-76
2022/05/12 13:22:29;;;;;;;4.00;1.13;;;21.50;99.90;;;;;;4964535;28;20203;-76
2022/05/12 13:24:57;;;;;;;1.17;0.80;;;21.60;99.90;;;;;;4964154;28;20258;-77
2022/05/12 13:27:35;;;;;;;2.50;0.70;;;21.60;99.90;;;;;;4965139;28;20246;-76
2022/05/12 13:30:13;;;;;;;2.13;0.85;;;21.60;99.90;;;;;;4963651;28;20559;-77
2022/05/12 13:32:46;;;;;;;1.08;0.80;;;21.60;99.90;;;;;;4964399;28;20196;-76
2022/05/12 13:35:20;;;;;;;2.17;1.00;;;21.60;99.90;;;;;;4964130;28;20191;-76
2022/05/12 13:37:54;;;;;;;4.03;1.23;;;21.60;99.90;;;;;;4963373;28;20258;-76
2022/05/12 13:40:46;;;;;;;1.63;1.08;;;21.60;99.90;;;;;;4964534;28;20192;-76
2022/05/12 13:43:23;;;;;;;2.17;0.80;;;21.60;99.90;;;;;;4964361;28;20191;-76
2022/05/12 13:46:11;;;;;;;0.90;0.90;;;21.60;99.90;;;;;;4964183;28;20278;-76
2022/05/12 13:48:56;;;;;;;6.55;1.00;;;21.60;99.90;;;;;;4963905;28;20256;-76
2022/05/12 13:51:44;;;;;;;0.93;0.80;;;21.60;99.90;;;;;;4964387;28;20194;-76
2022/05/12 13:54:24;;;;;;;0.88;0.82;;;21.60;99.90;;;;;;4963071;28;20282;-76
2022/05/12 13:56:51;;;;;;;2.65;0.80;;;21.60;99.90;;;;;;4963825;28;20219;-77
2022/05/12 13:59:25;;;;;;;0.88;0.70;;;21.60;99.90;;;;;;4964578;28;20266;-77
2022/05/12 14:02:13;;;;;;;2.78;0.80;;;21.60;99.90;;;;;;4964605;28;20188;-77
2022/05/12 14:04:40;;;;;;;3.83;0.90;;;21.60;99.90;;;;;;4963644;28;20215;-76
2022/05/12 14:07:08;;;;;;;0.73;0.73;;;21.60;99.90;;;;;;4962951;29;20280;-76
2022/05/12 14:09:50;;;;;;;2.50;1.02;;;21.60;99.90;;;;;;4962906;28;20226;-76
2022/05/12 14:12:23;;;;;;;1.15;0.80;;;21.60;99.90;;;;;;4962252;28;20275;-76
2022/05/12 14:20:23;;;;;;;0.80;0.80;;;21.60;99.90;;;;;;4932425;28;20200;-77
2022/05/12 14:22:50;;;;;;;0.90;0.80;;;21.60;99.90;;;;;;4964508;28;20180;-76
2022/05/12 14:25:18;;;;;;;2.00;0.70;;;21.60;99.90;;;;;;4965645;28;20219;-77
2022/05/12 14:27:45;;;;;;;2.78;0.88;;;21.50;99.90;;;;;;4962850;28;20255;-77
2022/05/12 14:30:14;;;;;;;1.27;0.90;;;21.60;99.90;;;;;;4957139;28;20242;-77
2022/05/12 14:32:45;;;;;;;0.70;0.70;;;21.60;99.90;;;;;;4959664;28;20294;-77
2022/05/12 14:35:16;;;;;;;1.10;0.80;;;21.60;99.90;;;;;;4959569;28;20279;-77
2022/05/12 14:37:43;;;;;;;0.98;0.80;;;21.60;99.90;;;;;;4959916;28;20250;-77
2022/05/12 14:40:10;;;;;;;2.13;0.90;;;21.50;99.90;;;;;;4959755;28;20204;-77
2022/05/12 14:42:37;;;;;;;1.00;0.88;;;21.50;99.90;;;;;;4959781;28;20199;-77
2022/05/12 14:45:05;;;;;;;1.27;0.70;;;21.50;99.90;;;;;;4959695;28;20281;-77
2022/05/12 14:47:32;;;;;;;1.13;0.88;;;21.50;99.90;;;;;;4960923;28;20672;-77
2022/05/12 14:50:00;;;;;;;0.80;0.80;;;21.50;99.90;;;;;;4964000;28;20267;-79
2022/05/12 14:52:28;;;;;;;1.40;0.70;;;21.50;99.90;;;;;;4963151;28;20613;-79
2022/05/12 14:54:57;;;;;;;0.70;0.70;;;21.50;99.90;;;;;;4963041;28;20203;-79
2022/05/12 14:57:25;;;;;;;2.15;0.80;;;21.50;99.90;;;;;;4963131;28;20294;-79
2022/05/12 14:59:52;;;;;;;0.75;0.75;;;21.50;99.90;;;;;;4963016;28;20266;-80
2022/05/12 15:02:22;;;;;;;0.73;0.70;;;21.40;99.90;;;;;;4962363;28;20250;-79
2022/05/12 15:04:49;;;;;;;1.13;0.90;;;21.40;99.90;;;;;;4962210;28;20302;-79
2022/05/12 15:07:17;;;;;;;1.60;0.85;;;21.40;99.90;;;;;;4962556;28;20255;-80
2022/05/12 15:09:45;;;;;;;0.63;0.63;;;21.40;99.90;;;;;;4963287;28;20306;-80
2022/05/12 15:12:12;;;;;;;2.17;1.02;;;21.40;99.90;;;;;;4962382;28;20214;-80
2022/05/12 15:14:40;;;;;;;1.95;0.70;;;21.40;99.90;;;;;;4963089;28;20618;-80
2022/05/12 15:17:08;;;;;;;1.27;0.90;;;21.40;99.90;;;;;;4963524;28;20310;-79
2022/05/12 15:19:35;;;;;;;0.77;0.77;;;21.40;99.90;;;;;;4962465;28;20214;-79
2022/05/12 15:22:02;;;;;;;1.17;0.70;;;21.40;99.90;;;;;;4962293;28;20206;-79
2022/05/12 15:24:31;;;;;;;3.72;1.00;;;21.40;99.90;;;;;;4961393;28;20226;-80
2022/05/12 15:27:01;;;;;;;1.90;0.82;;;21.40;99.90;;;;;;4962373;28;20704;-79
2022/05/12 15:29:28;;;;;;;0.88;0.80;;;21.40;99.90;;;;;;4963222;28;20206;-79
2022/05/12 15:31:55;;;;;;;2.17;0.70;;;21.40;99.90;;;;;;4962642;28;20347;-79
2022/05/12 15:34:22;;;;;;;1.40;1.10;;;21.40;99.90;;;;;;4962739;28;20286;-80
2022/05/12 15:36:50;;;;;;;0.75;0.70;;;21.40;99.90;;;;;;4962554;28;20220;-79
2022/05/12 15:39:19;;;;;;;1.45;0.82;;;21.40;99.90;;;;;;4963469;28;20214;-78
2022/05/12 15:41:50;;;;;;;1.88;1.05;;;21.40;99.90;;;;;;4964180;28;20203;-78
2022/05/12 15:44:19;;;;;;;1.25;0.90;;;21.40;99.90;;;;;;4962124;28;20731;-79
2022/05/12 15:46:48;;;;;;;0.70;0.70;;;21.30;99.90;;;;;;4959175;28;20224;-77
2022/05/12 15:49:17;;;;;;;5.53;1.20;;;21.30;99.90;;;;;;4958301;28;20217;-79
2022/05/12 15:51:44;;;;;;;10.30;1.50;;;21.30;99.90;;;;;;4958801;28;20310;-79
2022/05/12 15:54:11;;;;;;;5.10;0.80;;;21.30;99.90;;;;;;4958787;28;20223;-79
2022/05/12 15:56:38;;;;;;;9.75;0.80;;;21.30;99.90;;;;;;4958516;28;20206;-79
2022/05/12 15:59:07;;;;;;;7.93;1.25;;;21.30;99.90;;;;;;4960977;28;20246;-79
2022/05/12 16:01:34;;;;;;;6.68;0.80;;;21.30;99.90;;;;;;4962252;28;20203;-78
2022/05/12 16:04:01;;;;;;;14.00;0.98;;;21.40;99.90;;;;;;4959460;28;20694;-78
2022/05/12 16:06:29;;;;;;;5.38;0.82;;;21.40;99.90;;;;;;4959532;28;20210;-78
2022/05/12 16:08:56;;;;;;;7.65;0.98;;;21.30;99.90;;;;;;4957223;28;20220;-77
2022/05/12 16:11:46;;;;;;;1.92;0.60;;;21.30;99.90;;;;;;4958194;28;20207;-77
2022/05/12 16:14:15;;;;;;;1.35;0.50;;;21.30;99.90;;;;;;4958475;29;20270;-78
2022/05/12 16:16:41;;;;;;;7.63;0.50;;;21.30;99.90;;;;;;4958267;28;20306;-78
2022/05/12 16:19:09;;;;;;;2.28;0.55;;;21.20;99.90;;;;;;4958689;28;20689;-78
2022/05/12 16:21:36;;;;;;;3.60;0.73;;;21.20;99.90;;;;;;4958755;28;20203;-79
2022/05/12 16:24:04;;;;;;;6.43;0.88;;;21.30;99.90;;;;;;4957114;28;20286;-77
2022/05/12 16:26:32;;;;;;;8.25;1.13;;;21.30;99.90;;;;;;4956924;28;20210;-78
2022/05/12 16:28:59;;;;;;;5.50;0.93;;;21.30;99.90;;;;;;4956803;28;20203;-77
2022/05/12 16:31:27;;;;;;;5.63;0.55;;;21.20;99.90;;;;;;4956529;28;20209;-77
2022/05/12 16:33:55;;;;;;;8.90;1.17;;;21.20;99.90;;;;;;4956736;28;20207;-76
2022/05/12 16:36:22;;;;;;;7.47;1.20;;;21.20;99.90;;;;;;4956438;28;20203;-76
2022/05/12 16:38:49;;;;;;;9.88;1.42;;;21.20;99.90;;;;;;4956541;28;20200;-76
2022/05/12 16:41:15;;;;;;;10.23;1.20;;;21.20;99.90;;;;;;4958341;28;20295;-77
2022/05/12 16:43:42;;;;;;;8.57;2.00;;;21.20;99.90;;;;;;5036897;23;20312;-76
2022/05/12 16:46:13;;;;;;;12.45;1.88;;;21.10;99.90;;;;;;5018517;28;20217;-76
2022/05/12 16:48:41;;;;;;;7.68;1.40;;;21.10;99.90;;;;;;5018698;28;20186;-76
2022/05/12 16:51:08;;;;;;;20.70;1.90;;;21.10;99.90;;;;;;5018049;28;20292;-76
2022/05/12 16:53:35;;;;;;;10.85;1.27;;;21.10;99.90;;;;;;5014682;28;20637;-76
2022/05/12 16:56:01;;;;;;;10.18;1.10;;;21.10;99.90;;;;;;5018570;28;20256;-76
2022/05/12 16:58:29;;;;;;;11.43;1.20;;;21.10;99.90;;;;;;5018574;28;20599;-78
2022/05/12 17:00:57;;;;;;;4.43;0.63;;;21.10;99.90;;;;;;5015486;28;20212;-76
2022/05/12 17:03:24;;;;;;;6.13;0.88;;;21.10;99.90;;;;;;5014448;28;20221;-75
2022/05/12 17:05:52;;;;;;;2.72;1.00;;;21.10;99.90;;;;;;5014492;28;20650;-75
2022/05/12 17:08:19;;;;;;;2.85;0.63;;;21.10;99.90;;;;;;5014350;28;20293;-75
2022/05/12 17:10:47;;;;;;;2.53;0.50;;;21.10;99.90;;;;;;5013387;28;20704;-75
2022/05/12 17:13:15;;;;;;;5.43;0.60;;;21.00;99.90;;;;;;5015172;28;20217;-75
2022/05/12 17:15:42;;;;;;;7.32;0.57;;;21.10;99.90;;;;;;5017337;28;20201;-75
2022/05/12 17:18:09;;;;;;;6.18;0.50;;;21.10;99.90;;;;;;5017015;28;20197;-76
2022/05/12 17:20:36;;;;;;;4.97;0.50;;;21.10;99.90;;;;;;5015546;28;20283;-75
2022/05/12 17:23:05;;;;;;;3.55;0.57;;;21.10;99.90;;;;;;5015469;28;20223;-76
2022/05/12 17:25:32;;;;;;;4.93;0.60;;;21.10;99.90;;;;;;5016597;28;20210;-75
2022/05/12 17:27:59;;;;;;;2.95;0.60;;;21.10;99.90;;;;;;5017930;28;20209;-76
2022/05/12 17:30:27;;;;;;;4.38;0.60;;;21.10;99.90;;;;;;5017010;28;20754;-75
2022/05/12 17:32:54;;;;;;;4.53;0.50;;;21.10;99.90;;;;;;5017278;28;20221;-77
2022/05/12 17:35:21;;;;;;;5.93;1.63;;;21.10;99.90;;;;;;5014071;28;20286;-75
2022/05/12 17:37:49;;;;;;;12.20;0.90;;;21.20;99.90;;;;;;5014055;28;20206;-75
2022/05/12 17:40:17;;;;;;;4.43;0.50;;;21.20;99.90;;;;;;5013680;28;20236;-75
2022/05/12 17:42:46;;;;;;;0.50;0.40;;;21.10;99.90;;;;;;5013844;28;20229;-75
2022/05/12 17:45:16;;;;;;;0.32;0.30;;;21.10;99.90;;;;;;5013836;28;20221;-74
2022/05/12 17:47:44;;;;;;;1.55;0.20;;;21.00;99.90;;;;;;5013926;28;20213;-74
2022/05/12 17:50:13;;;;;;;1.05;0.20;;;21.00;99.90;;;;;;5013893;28;20289;-76
2022/05/12 17:52:41;;;;;;;1.35;0.10;;;21.00;99.90;;;;;;5013854;28;20217;-76
2022/05/12 17:55:08;;;;;;;0.10;0.10;;;21.00;99.90;;;;;;5013823;28;20197;-75
2022/05/12 17:57:38;;;;;;;0.10;0.10;;;21.00;99.90;;;;;;5013783;28;20197;-74
2022/05/12 18:00:07;;;;;;;0.10;0.10;;;21.00;99.90;;;;;;5013704;28;20201;-74
2022/05/12 18:02:34;;;;;;;1.38;0.10;;;21.00;99.90;;;;;;5013715;28;20308;-74
2022/05/12 18:05:01;;;;;;;0.10;0.10;;;21.00;99.90;;;;;;5013315;28;20693;-76
2022/05/12 18:07:29;;;;;;;12.40;0.40;;;20.90;99.90;;;;;;5013607;28;20300;-74
2022/05/12 18:09:56;;;;;;;37.28;1.30;;;21.00;99.90;;;;;;5014461;28;20612;-74
2022/05/12 18:12:23;;;;;;;17.70;0.85;;;21.10;99.90;;;;;;5014577;28;20221;-74
2022/05/12 18:14:51;;;;;;;9.00;0.85;;;21.10;99.90;;;;;;5013762;28;20687;-74
2022/05/12 18:17:18;;;;;;;36.72;1.63;;;21.10;99.90;;;;;;5014017;28;20201;-75
2022/05/12 18:19:45;;;;;;;30.00;1.25;;;21.20;99.90;;;;;;5014111;28;20224;-74
2022/05/12 18:22:12;;;;;;;16.83;1.10;;;21.30;99.90;;;;;;5019037;28;20231;-73
2022/05/12 18:24:40;;;;;;;19.02;1.60;;;21.30;99.90;;;;;;5017584;28;20571;-74
2022/05/12 18:27:07;;;;;;;13.98;1.58;;;21.30;99.90;;;;;;5017911;28;20209;-74
2022/05/12 18:29:34;;;;;;;16.13;1.77;;;21.30;99.90;;;;;;5017257;28;20209;-74
2022/05/12 18:32:03;;;;;;;15.95;1.90;;;21.30;99.90;;;;;;5018254;28;20229;-73
2022/05/12 18:34:30;;;;;;;16.92;2.05;;;21.20;99.90;;;;;;5018122;28;20205;-75
2022/05/12 18:36:56;;;;;;;6.68;1.73;;;21.20;99.90;;;;;;5019077;28;20240;-75
2022/05/12 18:39:23;;;;;;;5.35;1.88;;;21.20;99.90;;;;;;5019674;28;20232;-75
2022/05/12 18:41:50;;;;;;;11.60;3.20;;;21.10;99.90;;;;;;5021435;28;20262;-74
2022/05/12 18:44:17;;;;;;;7.05;2.10;;;21.10;99.90;;;;;;5018944;28;20324;-75
2022/05/12 18:46:44;;;;;;;10.93;2.50;;;21.10;99.90;;;;;;5019299;28;20691;-74
2022/05/12 18:49:12;;;;;;;5.53;2.33;;;21.10;99.90;;;;;;5020051;28;20288;-74
2022/05/12 18:51:39;;;;;;;9.45;2.42;;;21.10;99.90;;;;;;5018370;28;20237;-74
2022/05/12 18:54:06;;;;;;;13.15;3.10;;;21.10;99.90;;;;;;5018020;28;20293;-74
2022/05/12 18:56:33;;;;;;;8.13;2.90;;;21.10;99.90;;;;;;5019845;28;20201;-75
2022/05/12 18:59:02;;;;;;;5.10;2.70;;;21.10;99.90;;;;;;5020896;28;20201;-75
2022/05/12 19:01:29;;;;;;;6.38;2.65;;;21.10;99.90;;;;;;5020019;28;20205;-75
2022/05/12 19:03:56;;;;;;;4.05;2.70;;;21.10;99.90;;;;;;5022270;28;20256;-75
2022/05/12 19:06:25;;;;;;;6.00;2.95;;;21.10;99.90;;;;;;5022082;28;20217;-75
2022/05/12 19:08:51;;;;;;;6.38;2.95;;;21.10;99.90;;;;;;5020549;28;20265;-75
2022/05/12 19:11:18;;;;;;;5.70;2.83;;;21.10;99.90;;;;;;5020486;28;20227;-75
2022/05/12 19:13:46;;;;;;;2.85;2.60;;;21.10;99.90;;;;;;5016624;28;20734;-77
2022/05/12 19:16:13;;;;;;;6.10;2.88;;;21.10;99.90;;;;;;5017562;28;20221;-76
2022/05/12 19:18:40;;;;;;;4.70;2.60;;;21.10;99.90;;;;;;5016662;28;20205;-75
2022/05/12 19:21:07;;;;;;;5.70;3.00;;;21.10;99.90;;;;;;5016447;28;20211;-76
2022/05/12 19:23:36;;;;;;;10.10;3.50;;;21.10;99.90;;;;;;5020298;28;20218;-76
2022/05/12 19:26:03;;;;;;;4.13;3.00;;;21.10;99.90;;;;;;5021589;28;20217;-75
2022/05/12 19:28:32;;;;;;;5.45;2.88;;;21.10;99.90;;;;;;5021000;28;20237;-74
2022/05/12 19:30:59;;;;;;;4.90;2.90;;;21.10;99.90;;;;;;5021484;28;20216;-75
2022/05/12 19:33:27;;;;;;;3.33;3.00;;;21.10;99.90;;;;;;5021503;28;20257;-75
2022/05/12 19:35:57;;;;;;;4.43;3.42;;;21.10;99.90;;;;;;5021448;28;20197;-76
2022/05/12 19:38:24;;;;;;;8.40;3.25;;;21.10;99.90;;;;;;5019134;28;20201;-76
2022/05/12 19:40:53;;;;;;;3.92;3.55;;;21.10;99.90;;;;;;5021219;28;20208;-76
2022/05/12 19:43:20;;;;;;;5.22;3.15;;;21.10;99.90;;;;;;5021653;28;20240;-74
2022/05/12 19:45:48;;;;;;;4.55;3.13;;;21.10;99.90;;;;;;5022533;28;20245;-75
2022/05/12 19:48:18;;;;;;;3.75;3.40;;;21.10;99.90;;;;;;5021230;28;20564;-75
2022/05/12 19:50:46;;;;;;;8.63;3.40;;;21.10;99.90;;;;;;5022276;28;20197;-75
2022/05/12 19:53:14;;;;;;;4.25;3.75;;;21.10;99.90;;;;;;5021032;28;20244;-76
2022/05/12 19:55:41;;;;;;;3.88;3.38;;;21.10;99.90;;;;;;5019878;28;20297;-75
2022/05/12 19:58:10;;;;;;;3.75;2.90;;;21.10;99.90;;;;;;5015851;28;20623;-76
2022/05/12 20:00:40;;;;;;;4.13;3.83;;;21.10;99.90;;;;;;5016380;28;20201;-76
2022/05/12 20:03:09;;;;;;;7.38;3.50;;;21.10;99.90;;;;;;5015581;28;20256;-75
2022/05/12 20:05:36;;;;;;;7.13;3.40;;;21.10;99.90;;;;;;5015694;28;20316;-75
2022/05/12 20:08:03;;;;;;;3.90;3.00;;;21.10;99.90;;;;;;5015758;28;20201;-76
2022/05/12 20:10:35;;;;;;;3.75;3.45;;;21.10;99.90;;;;;;5015453;28;20204;-76
2022/05/12 20:13:02;;;;;;;3.30;3.03;;;21.10;99.90;;;;;;5015756;28;20221;-75
2022/05/12 20:15:30;;;;;;;4.45;3.25;;;21.10;99.90;;;;;;5015819;28;20691;-77
2022/05/12 20:17:57;;;;;;;4.28;3.60;;;21.10;99.90;;;;;;5016339;28;20661;-75
2022/05/12 20:20:28;;;;;;;7.13;3.10;;;21.10;99.90;;;;;;5015801;28;20580;-76
2022/05/12 20:22:56;;;;;;;8.50;3.25;;;21.10;99.90;;;;;;5015543;28;20233;-75
2022/05/12 20:25:23;;;;;;;4.88;3.45;;;21.10;99.90;;;;;;5015146;28;20619;-76
2022/05/12 20:27:51;;;;;;;5.35;3.00;;;21.10;99.90;;;;;;5015966;28;20284;-76
2022/05/12 20:30:20;;;;;;;4.43;3.13;;;21.10;99.90;;;;;;5014728;28;20236;-75
2022/05/12 20:32:48;;;;;;;3.22;3.03;;;21.10;99.90;;;;;;5015027;28;20227;-76
2022/05/12 20:35:16;;;;;;;7.63;3.28;;;21.10;99.90;;;;;;5014952;28;20204;-76
2022/05/12 20:37:44;;;;;;;4.75;3.35;;;21.10;99.90;;;;;;5014599;28;20674;-77
2022/05/12 20:40:14;;;;;;;4.88;2.83;;;21.10;99.90;;;;;;5014555;28;20673;-76
2022/05/12 20:42:41;;;;;;;4.38;2.90;;;21.10;99.90;;;;;;5014498;28;20264;-76
2022/05/12 20:45:09;;;;;;;4.35;3.10;;;21.10;99.90;;;;;;5013787;28;20197;-76
2022/05/12 20:47:36;;;;;;;3.30;3.10;;;21.00;99.90;;;;;;5014633;28;20264;-76
2022/05/12 20:50:05;;;;;;;6.38;3.28;;;21.00;99.90;;;;;;5014741;28;20205;-76
2022/05/12 20:52:31;;;;;;;6.18;3.10;;;21.00;99.90;;;;;;5014561;28;20264;-75
2022/05/12 20:54:58;;;;;;;2.95;2.75;;;21.10;99.90;;;;;;5014567;28;20233;-76
2022/05/12 20:57:25;;;;;;;3.42;3.20;;;21.00;99.90;;;;;;5014256;28;20194;-76
2022/05/12 20:59:52;;;;;;;2.90;2.65;;;21.00;99.90;;;;;;5014482;28;20288;-76
2022/05/12 21:02:19;;;;;;;4.90;2.88;;;21.00;99.90;;;;;;5014778;28;20312;-76
2022/05/12 21:04:46;;;;;;;3.17;2.70;;;21.00;99.90;;;;;;5014423;28;20271;-76
2022/05/12 21:07:15;;;;;;;3.75;2.80;;;21.10;99.90;;;;;;5014415;28;20257;-75
2022/05/12 21:09:42;;;;;;;3.17;2.85;;;21.00;99.90;;;;;;5014530;28;20205;-75
2022/05/12 21:12:10;;;;;;;11.43;2.95;;;21.10;99.90;;;;;;5014000;28;20221;-75
2022/05/12 21:14:37;;;;;;;2.92;2.72;;;21.10;99.90;;;;;;5014351;28;20201;-75
2022/05/12 21:17:06;;;;;;;2.88;2.70;;;21.00;99.90;;;;;;5014313;28;20204;-75
2022/05/12 21:19:33;;;;;;;3.63;3.05;;;21.10;99.90;;;;;;5014110;28;20205;-75
2022/05/12 21:22:00;;;;;;;3.72;2.80;;;21.00;99.90;;;;;;5014097;28;20308;-75
2022/05/12 21:24:30;;;;;;;4.00;2.85;;;21.10;99.90;;;;;;5014176;28;20284;-75
2022/05/12 21:26:57;;;;;;;3.33;2.92;;;21.00;99.90;;;;;;5014029;28;20232;-75
2022/05/12 21:29:24;;;;;;;5.32;3.00;;;21.00;99.90;;;;;;5014167;28;20292;-75
2022/05/12 21:31:51;;;;;;;3.70;3.00;;;21.10;99.90;;;;;;5013950;28;20293;-75
2022/05/12 21:34:18;;;;;;;3.08;2.72;;;21.00;99.90;;;;;;5013807;28;20296;-75
2022/05/12 21:36:45;;;;;;;9.13;2.78;;;21.00;99.90;;;;;;5013693;28;20669;-75
2022/05/12 21:39:13;;;;;;;4.03;2.65;;;21.00;99.90;;;;;;5014066;28;20251;-75
2022/05/12 21:41:41;;;;;;;6.10;2.90;;;21.00;99.90;;;;;;5013982;28;20201;-75
2022/05/12 21:44:08;;;;;;;4.85;2.83;;;21.00;99.90;;;;;;5013803;28;20599;-76
2022/05/12 21:46:35;;;;;;;4.70;2.85;;;21.00;99.90;;;;;;5013928;28;20313;-74
2022/05/12 21:49:03;;;;;;;3.78;2.50;;;21.00;99.90;;;;;;5013732;28;20740;-74
2022/05/12 21:51:30;;;;;;;6.15;2.65;;;21.00;99.90;;;;;;5013622;28;20575;-74
2022/05/12 21:53:59;;;;;;;7.68;2.78;;;21.00;99.90;;;;;;5013376;28;20221;-74
2022/05/12 21:56:29;;;;;;;4.05;2.83;;;21.00;99.90;;;;;;5015203;28;20205;-74
2022/05/12 22:01:45;;;;;;;4.18;2.63;;;21.00;99.90;;;;;;5017868;28;20200;-75
2022/05/12 22:04:15;;;;;;;3.45;2.90;;;21.00;99.90;;;;;;5017861;28;20197;-74
2022/05/12 22:06:45;;;;;;;3.08;2.55;;;21.00;99.90;;;;;;5017813;28;20227;-76